createdAt,value
2022-07-26T00:01:44.391Z,99703.79
2022-07-26T00:05:13.221Z,99700.03
2022-07-26T00:08:40.634Z,99706.29
2022-07-26T00:12:09.113Z,99713.26
2022-07-26T00:15:37.087Z,99709.91
2022-07-26T00:19:05.463Z,99698.73
2022-07-26T00:22:36.494Z,99685.98
2022-07-26T00:26:03.928Z,99686.77
2022-07-26T00:29:31.180Z,99686.88
2022-07-26T00:33:00.793Z,99688.96
2022-07-26T00:36:29.490Z,99690.90
2022-07-26T00:39:57.649Z,99685.43
2022-07-26T00:43:26.801Z,99671.73
2022-07-26T00:46:54.194Z,99680.87
2022-07-26T00:50:23.009Z,99701.52
2022-07-26T00:53:51.324Z,99707.62
2022-07-26T00:57:20.312Z,99711.11
2022-07-26T01:00:50.525Z,99714.42
2022-07-26T01:04:18.237Z,99714.15
2022-07-26T01:07:45.856Z,99714.42
2022-07-26T01:11:12.941Z,99705.59
2022-07-26T01:14:39.940Z,99693.73
2022-07-26T01:18:07.314Z,99696.59
2022-07-26T01:21:34.964Z,99696.04
2022-07-26T01:25:02.022Z,99686.96
2022-07-26T01:28:30.339Z,99684.52
2022-07-26T01:31:57.381Z,99682.55
2022-07-26T01:35:25.059Z,99686.83
2022-07-26T01:38:56.651Z,99685.33
2022-07-26T01:42:24.278Z,99684.67
2022-07-26T01:45:55.071Z,99682.80
2022-07-26T01:49:30.403Z,99686.05
2022-07-26T01:52:58.318Z,99686.84
2022-07-26T01:56:25.509Z,99679.02
2022-07-26T01:59:52.693Z,99665.86
2022-07-26T02:03:20.191Z,99659.67
2022-07-26T02:06:47.317Z,99658.17
2022-07-26T02:10:15.819Z,99668.48
2022-07-26T02:13:49.954Z,99680.11
2022-07-26T02:17:20.762Z,99708.27
2022-07-26T02:20:48.300Z,99717.39
2022-07-26T02:24:17.921Z,99707.29
2022-07-26T02:27:45.326Z,99707.73
2022-07-26T02:31:15.574Z,99712.06
2022-07-26T02:34:43.951Z,99705.60
2022-07-26T02:38:14.140Z,99701.65
2022-07-26T02:41:41.984Z,99697.64
2022-07-26T02:45:12.926Z,99692.38
2022-07-26T02:48:40.466Z,99690.81
2022-07-26T02:52:08.869Z,99699.58
2022-07-26T02:55:36.083Z,99688.16
2022-07-26T02:59:03.390Z,99683.60
2022-07-26T03:02:32.526Z,99692.98
2022-07-26T03:06:00.084Z,99689.31
2022-07-26T03:09:27.537Z,99692.36
2022-07-26T03:12:55.444Z,99697.29
2022-07-26T03:16:26.115Z,99695.58
2022-07-26T03:19:57.011Z,99704.01
2022-07-26T03:23:24.313Z,99699.98
2022-07-26T03:26:51.891Z,99707.70
2022-07-26T03:30:24.513Z,99730.98
2022-07-26T03:33:52.699Z,99741.79
2022-07-26T03:37:20.119Z,99740.33
2022-07-26T03:40:47.910Z,99740.29
2022-07-26T03:44:15.215Z,99732.56
2022-07-26T03:47:43.394Z,99728.98
2022-07-26T03:51:12.282Z,99744.01
2022-07-26T03:54:39.732Z,99755.98
2022-07-26T03:58:06.836Z,99744.27
2022-07-26T04:01:35.303Z,99724.45
2022-07-26T04:05:02.662Z,99721.34
2022-07-26T04:08:30.389Z,99712.45
2022-07-26T04:11:57.571Z,99720.77
2022-07-26T04:15:25.222Z,99742.30
2022-07-26T04:18:52.542Z,99749.61
2022-07-26T04:22:19.685Z,99755.53
2022-07-26T04:25:46.847Z,99761.08
2022-07-26T04:29:15.608Z,99767.43
2022-07-26T04:32:42.383Z,99771.86
2022-07-26T04:36:10.436Z,99783.77
2022-07-26T04:39:37.693Z,99803.67
2022-07-26T04:43:05.073Z,99817.73
2022-07-26T04:46:35.765Z,99822.02
2022-07-26T04:50:02.447Z,99819.83
2022-07-26T04:53:29.701Z,99809.29
2022-07-26T04:56:56.860Z,99814.77
2022-07-26T05:00:27.932Z,99813.89
2022-07-26T05:03:55.075Z,99820.90
2022-07-26T05:07:24.690Z,99819.41
2022-07-26T05:10:55.563Z,99857.80
2022-07-26T05:14:24.540Z,99848.84
2022-07-26T05:17:51.939Z,99885.27
2022-07-26T05:21:20.720Z,99890.72
2022-07-26T05:24:49.436Z,99920.60
2022-07-26T05:28:19.674Z,99906.27
2022-07-26T05:31:50.915Z,99894.94
2022-07-26T05:35:18.951Z,99891.89
2022-07-26T05:38:47.664Z,99874.98
2022-07-26T05:42:15.783Z,99868.63
2022-07-26T05:45:44.236Z,99888.35
2022-07-26T05:49:17.266Z,99910.58
2022-07-26T05:52:47.838Z,99913.93
2022-07-26T05:56:18.791Z,99916.17
2022-07-26T05:59:49.238Z,99914.52
2022-07-26T06:03:26.631Z,99905.17
2022-07-26T06:07:00.100Z,99914.40
2022-07-26T06:10:26.526Z,99918.70
2022-07-26T06:13:56.677Z,99927.89
2022-07-26T06:17:27.662Z,99921.27
2022-07-26T06:20:56.634Z,99913.47
2022-07-26T06:24:33.469Z,99914.33
2022-07-26T06:28:05.606Z,99927.03
2022-07-26T06:31:33.231Z,99924.14
2022-07-26T06:35:01.184Z,99922.94
2022-07-26T06:38:31.421Z,99930.45
2022-07-26T06:41:59.187Z,99939.98
2022-07-26T06:45:30.741Z,99948.34
2022-07-26T06:49:02.421Z,99947.55
2022-07-26T06:52:33.356Z,99928.10
2022-07-26T06:56:01.601Z,99925.25
2022-07-26T06:59:32.912Z,99947.05
2022-07-26T07:03:00.516Z,99958.27
2022-07-26T07:06:28.936Z,99976.75
2022-07-26T07:09:57.339Z,99959.41
2022-07-26T07:13:26.517Z,99959.08
2022-07-26T07:16:53.772Z,99948.63
2022-07-26T07:20:23.754Z,99942.70
2022-07-26T07:24:06.639Z,99946.34
2022-07-26T07:27:34.828Z,99957.57
2022-07-26T07:31:02.481Z,99971.73
2022-07-26T07:34:31.172Z,99980.19
2022-07-26T07:37:58.222Z,99995.31
2022-07-26T07:41:26.298Z,100010.45
2022-07-26T07:44:53.488Z,100021.21
2022-07-26T07:48:20.649Z,100021.58
2022-07-26T07:51:49.335Z,100023.49
2022-07-26T07:55:36.589Z,100023.14
2022-07-26T07:59:05.150Z,100027.21
2022-07-26T08:02:33.891Z,100025.15
2022-07-26T08:06:01.700Z,100024.80
2022-07-26T08:09:28.857Z,100017.25
2022-07-26T08:12:56.420Z,100013.38
2022-07-26T08:16:23.560Z,100018.58
2022-07-26T08:19:50.910Z,100015.97
2022-07-26T08:23:18.210Z,100012.64
2022-07-26T08:26:45.379Z,100012.31
2022-07-26T08:30:14.404Z,100016.79
2022-07-26T08:33:46.476Z,100022.94
2022-07-26T08:37:17.563Z,100020.91
2022-07-26T08:40:45.710Z,100018.55
2022-07-26T08:44:16.632Z,100018.35
2022-07-26T08:48:07.549Z,100023.64
2022-07-26T08:51:32.543Z,100028.33
2022-07-26T08:55:00.080Z,100036.41
2022-07-26T08:58:27.414Z,100040.44
2022-07-26T09:01:59.476Z,100041.23
2022-07-26T09:05:31.580Z,100046.52
2022-07-26T09:09:13.398Z,100057.40
2022-07-26T09:12:42.143Z,100058.48
2022-07-26T09:16:14.498Z,100057.20
2022-07-26T09:19:42.449Z,100061.97
2022-07-26T09:23:12.122Z,100058.36
2022-07-26T09:26:40.118Z,100062.16
2022-07-26T09:30:12.547Z,100062.46
2022-07-26T09:33:50.282Z,100059.56
2022-07-26T09:37:18.351Z,100059.98
2022-07-26T09:40:51.034Z,100058.96
2022-07-26T09:44:27.953Z,100057.62
2022-07-26T09:47:55.987Z,100059.29
2022-07-26T09:51:38.391Z,100058.42
2022-07-26T09:55:10.046Z,100058.73
2022-07-26T09:58:38.827Z,100067.95
2022-07-26T10:02:06.947Z,100066.90
2022-07-26T10:05:35.571Z,100069.98
2022-07-26T10:09:04.525Z,100072.42
2022-07-26T10:12:35.622Z,100068.73
2022-07-26T10:16:03.102Z,100063.59
2022-07-26T10:19:45.436Z,100063.48
2022-07-26T10:23:36.612Z,100068.39
2022-07-26T10:27:04.800Z,100068.75
2022-07-26T10:30:35.495Z,100076.11
2022-07-26T10:34:06.388Z,100077.52
2022-07-26T10:37:33.948Z,100082.13
2022-07-26T10:41:02.472Z,100088.41
2022-07-26T10:44:31.679Z,100085.79
2022-07-26T10:48:17.512Z,100090.96
2022-07-26T10:51:45.024Z,100089.05
2022-07-26T10:55:13.272Z,100088.22
2022-07-26T10:58:46.643Z,100084.45
2022-07-26T11:02:23.532Z,100087.60
2022-07-26T11:05:51.048Z,100088.55
2022-07-26T11:09:21.180Z,100084.27
2022-07-26T11:12:48.907Z,100079.30
2022-07-26T11:16:23.710Z,100083.62
2022-07-26T11:19:53.567Z,100078.91
2022-07-26T11:23:29.850Z,100080.05
2022-07-26T11:26:56.950Z,100080.52
2022-07-26T11:30:25.087Z,100088.98
2022-07-26T11:33:55.117Z,100088.17
2022-07-26T11:37:22.266Z,100095.14
2022-07-26T11:40:51.698Z,100093.59
2022-07-26T11:44:23.473Z,100087.38
2022-07-26T11:47:59.042Z,100090.41
2022-07-26T11:51:27.932Z,100094.40
2022-07-26T11:54:57.303Z,100089.31
2022-07-26T11:58:24.454Z,100088.61
2022-07-26T12:01:51.935Z,100089.50
2022-07-26T12:05:22.608Z,100084.41
2022-07-26T12:08:56.091Z,100084.81
2022-07-26T12:12:28.310Z,100080.04
2022-07-26T12:15:56.640Z,100079.77
2022-07-26T12:19:34.257Z,100077.77
2022-07-26T12:23:06.377Z,100073.91
2022-07-26T12:26:34.863Z,100069.44
2022-07-26T12:30:20.001Z,100074.31
2022-07-26T12:33:53.009Z,100082.61
2022-07-26T12:37:28.261Z,100081.23
2022-07-26T12:41:01.098Z,100085.42
2022-07-26T12:44:27.882Z,100076.14
2022-07-26T12:47:57.684Z,100073.89
2022-07-26T12:51:27.090Z,100072.08
2022-07-26T12:54:55.366Z,100062.58
2022-07-26T12:58:22.635Z,100066.24
2022-07-26T13:01:50.893Z,100062.77
2022-07-26T13:05:18.575Z,100066.20
2022-07-26T13:08:45.686Z,100065.27
2022-07-26T13:12:14.353Z,100067.37
2022-07-26T13:15:41.215Z,100070.19
2022-07-26T13:19:08.680Z,100075.02
2022-07-26T13:22:36.181Z,100073.85
2022-07-26T13:26:03.468Z,100073.52
2022-07-26T13:29:31.958Z,100077.00
2022-07-26T13:33:00.123Z,100072.14
2022-07-26T13:36:27.291Z,100069.28
2022-07-26T13:39:54.689Z,100071.70
2022-07-26T13:43:23.820Z,100070.88
2022-07-26T13:47:09.652Z,100068.61
2022-07-26T13:50:43.162Z,100066.98
2022-07-26T13:54:18.071Z,100065.48
2022-07-26T13:57:55.882Z,100068.07
2022-07-26T14:01:43.049Z,100068.32
2022-07-26T14:05:14.770Z,100074.56
2022-07-26T14:08:42.319Z,100071.23
2022-07-26T14:12:16.706Z,100069.02
2022-07-26T14:15:44.340Z,100071.79
2022-07-26T14:19:15.971Z,100073.36
2022-07-26T14:22:44.036Z,100070.85
2022-07-26T14:26:12.519Z,100073.70
2022-07-26T14:29:46.648Z,100068.55
2022-07-26T14:33:17.156Z,100070.23
2022-07-26T14:36:45.924Z,100058.48
2022-07-26T14:40:17.246Z,100063.27
2022-07-26T14:43:47.239Z,100057.55
2022-07-26T14:47:17.285Z,100058.77
2022-07-26T14:51:08.556Z,100057.73
2022-07-26T14:54:44.942Z,100060.80
2022-07-26T14:58:16.697Z,100061.51
2022-07-26T15:01:50.663Z,100059.80
2022-07-26T15:05:23.964Z,100058.83
2022-07-26T15:09:02.571Z,100055.66
2022-07-26T15:12:32.593Z,100055.60
2022-07-26T15:16:02.306Z,100058.17
2022-07-26T15:19:41.417Z,100058.37
2022-07-26T15:23:15.706Z,100063.05
2022-07-26T15:26:45.768Z,100061.16
2022-07-26T15:30:15.625Z,100059.89
2022-07-26T15:33:49.435Z,100064.32
2022-07-26T15:37:19.468Z,100061.58
2022-07-26T15:40:48.497Z,100058.90
2022-07-26T15:44:25.527Z,100065.77
2022-07-26T15:48:10.568Z,100060.38
2022-07-26T15:51:44.473Z,100059.18
2022-07-26T15:55:16.571Z,100056.48
2022-07-26T15:58:45.779Z,100058.02
2022-07-26T16:02:16.395Z,100059.23
2022-07-26T16:05:48.148Z,100059.92
2022-07-26T16:09:20.324Z,100060.81
2022-07-26T16:12:49.215Z,100060.86
2022-07-26T16:16:23.331Z,100064.03
2022-07-26T16:19:57.717Z,100064.17
2022-07-26T16:23:29.846Z,100066.86
2022-07-26T16:27:02.166Z,100062.24
2022-07-26T16:30:32.733Z,100067.70
2022-07-26T16:34:07.601Z,100072.36
2022-07-26T16:37:41.998Z,100079.61
2022-07-26T16:41:22.319Z,100080.76
2022-07-26T16:44:58.821Z,100088.77
2022-07-26T16:48:31.604Z,100087.84
2022-07-26T16:52:00.069Z,100085.68
2022-07-26T16:55:28.221Z,100086.81
2022-07-26T16:58:57.420Z,100085.55
2022-07-26T17:02:25.697Z,100091.80
2022-07-26T17:06:06.448Z,100102.12
2022-07-26T17:09:54.731Z,100104.54
2022-07-26T17:13:26.311Z,100105.38
2022-07-26T17:16:55.405Z,100108.33
2022-07-26T17:20:23.176Z,100112.77
2022-07-26T17:23:51.260Z,100126.95
2022-07-26T17:27:33.168Z,100138.45
2022-07-26T17:31:02.792Z,100145.31
2022-07-26T17:34:32.587Z,100146.48
2022-07-26T17:38:00.387Z,100154.86
2022-07-26T17:41:32.824Z,100158.05
2022-07-26T17:45:01.538Z,100159.79
2022-07-26T17:48:29.886Z,100159.30
2022-07-26T17:51:59.039Z,100161.19
2022-07-26T17:55:30.887Z,100166.09
2022-07-26T17:59:01.630Z,100169.27
2022-07-26T18:02:33.905Z,100170.55
2022-07-26T18:06:02.058Z,100178.33
2022-07-26T18:09:30.191Z,100181.19
2022-07-26T18:12:58.340Z,100185.95
2022-07-26T18:16:25.641Z,100189.05
2022-07-26T18:19:54.212Z,100191.21
2022-07-26T18:23:23.106Z,100195.74
2022-07-26T18:26:53.837Z,100199.13
2022-07-26T18:30:22.018Z,100203.49
2022-07-26T18:33:57.499Z,100206.73
2022-07-26T18:37:25.935Z,100209.09
2022-07-26T18:40:58.149Z,100211.55
2022-07-26T18:44:28.263Z,100211.77
2022-07-26T18:47:56.659Z,100218.95
2022-07-26T18:51:28.148Z,100223.31
2022-07-26T18:54:55.777Z,100225.28
2022-07-26T18:58:27.476Z,100225.13
2022-07-26T19:01:58.315Z,100234.29
2022-07-26T19:05:27.001Z,100235.48
2022-07-26T19:09:03.485Z,100243.70
2022-07-26T19:12:33.406Z,100247.23
2022-07-26T19:16:04.378Z,100251.83
2022-07-26T19:19:34.983Z,100256.13
2022-07-26T19:23:03.683Z,100253.40
2022-07-26T19:26:31.998Z,100254.11
2022-07-26T19:30:04.025Z,100257.27
2022-07-26T19:33:33.597Z,100260.94
2022-07-26T19:37:08.173Z,100263.21
2022-07-26T19:40:43.672Z,100266.45
2022-07-26T19:44:13.859Z,100267.98
2022-07-26T19:47:45.245Z,100269.86
2022-07-26T19:51:13.505Z,100275.09
2022-07-26T19:54:44.291Z,100271.39
2022-07-26T19:58:11.825Z,100275.06
2022-07-26T20:01:55.354Z,100286.53
2022-07-26T20:05:34.126Z,100292.84
2022-07-26T20:09:04.553Z,100293.33
2022-07-26T20:12:34.013Z,100294.58
2022-07-26T20:16:05.080Z,100296.73
2022-07-26T20:19:38.342Z,100301.74
2022-07-26T20:23:14.805Z,100303.70
2022-07-26T20:26:46.350Z,100305.59
2022-07-26T20:30:15.743Z,100308.98
2022-07-26T20:33:44.029Z,100307.58
2022-07-26T20:37:13.420Z,100307.56
2022-07-26T20:40:41.437Z,100315.08
2022-07-26T20:44:13.748Z,100321.27
2022-07-26T20:47:45.289Z,100327.69
2022-07-26T20:51:14.418Z,100326.68
2022-07-26T20:54:51.378Z,100326.80
2022-07-26T20:58:23.422Z,100326.95
2022-07-26T21:01:51.428Z,100324.80
2022-07-26T21:05:22.150Z,100327.56
2022-07-26T21:08:52.705Z,100334.02
2022-07-26T21:12:22.484Z,100332.73
2022-07-26T21:16:04.260Z,100336.02
2022-07-26T21:19:38.129Z,100343.15
2022-07-26T21:23:17.284Z,100342.47
2022-07-26T21:26:50.341Z,100350.73
2022-07-26T21:30:24.934Z,100353.11
2022-07-26T21:33:58.751Z,100356.84
2022-07-26T21:37:34.586Z,100360.90
2022-07-26T21:41:05.914Z,100360.06
2022-07-26T21:44:33.862Z,100365.13
2022-07-26T21:48:02.889Z,100370.14
2022-07-26T21:51:43.733Z,100374.99
2022-07-26T21:55:20.715Z,100378.20
2022-07-26T21:58:51.897Z,100376.70
2022-07-26T22:02:24.208Z,100379.19
2022-07-26T22:05:54.805Z,100385.12
2022-07-26T22:09:25.118Z,100392.30
2022-07-26T22:12:58.031Z,100396.81
2022-07-26T22:16:26.014Z,100400.35
2022-07-26T22:19:53.274Z,100403.55
2022-07-26T22:23:30.904Z,100407.17
2022-07-26T22:27:04.695Z,100401.17
2022-07-26T22:30:41.135Z,100404.96
2022-07-26T22:34:18.025Z,100405.05
2022-07-26T22:37:49.826Z,100410.79
2022-07-26T22:41:17.074Z,100411.45
2022-07-26T22:44:45.140Z,100409.83
2022-07-26T22:48:15.629Z,100403.73
2022-07-26T22:51:46.476Z,100408.91
2022-07-26T22:55:15.132Z,100403.29
2022-07-26T22:58:43.284Z,100405.40
2022-07-26T23:02:11.271Z,100403.95
2022-07-26T23:05:46.509Z,100403.81
2022-07-26T23:09:15.345Z,100403.40
2022-07-26T23:12:43.387Z,100403.44
2022-07-26T23:16:13.265Z,100399.52
2022-07-26T23:19:40.608Z,100398.57
2022-07-26T23:23:08.149Z,100401.22
2022-07-26T23:26:35.632Z,100395.53
2022-07-26T23:30:02.560Z,100393.42
2022-07-26T23:33:51.301Z,100396.23
2022-07-26T23:37:17.629Z,100395.91
2022-07-26T23:40:45.172Z,100392.47
2022-07-26T23:44:12.534Z,100393.65
2022-07-26T23:47:39.332Z,100398.92
2022-07-26T23:51:06.469Z,100399.51
2022-07-26T23:54:33.742Z,100401.74
2022-07-26T23:58:01.310Z,100403.45
